FIN436 EFOU-EFHK
Flight info
| Callsign | FIN436 |
|---|---|
| Flight time | 0h 43m |
| Altitude | 31000 |
| Route | MIKNU Y86 LUSEP |
| Aircraft | A320/M-SDE3FGHIRWY/LB1 |
Departure
| Time | 2026-04-30 17:41 |
|---|---|
| Airport | Oulu Airport (EFOU) |
Arrival
| Time | 2026-04-30 18:24 |
|---|---|
| Airport | Helsinki Vantaa Airport (EFHK) |
| Time | Latitude | Longitude | Altitude | Speed | Heading |
|---|---|---|---|---|---|
| 2026-04-30 17:39 | 64.79206 | 25.18878 | 10199 ft | 317 kts | 163° |
| 2026-04-30 17:41 | 64.59753 | 25.32831 | 14944 ft | 394 kts | 163° |
| 2026-04-30 17:42 | 64.54454 | 25.36623 | 16188 ft | 403 kts | 163° |
| 2026-04-30 17:42 | 64.46271 | 25.42342 | 17999 ft | 417 kts | 167° |
| 2026-04-30 17:43 | 64.40475 | 25.43517 | 19089 ft | 422 kts | 184° |
| 2026-04-30 17:44 | 64.31575 | 25.43029 | 20759 ft | 433 kts | 184° |
| 2026-04-30 17:44 | 64.22450 | 25.42515 | 22406 ft | 443 kts | 184° |
| 2026-04-30 17:46 | 64.06751 | 25.41654 | 24797 ft | 460 kts | 184° |
| 2026-04-30 17:47 | 63.93750 | 25.40971 | 26353 ft | 473 kts | 184° |
| 2026-04-30 17:48 | 63.80428 | 25.40281 | 27799 ft | 485 kts | 184° |
| 2026-04-30 17:48 | 63.70199 | 25.39782 | 28823 ft | 494 kts | 184° |
| 2026-04-30 17:49 | 63.56281 | 25.39037 | 30086 ft | 506 kts | 184° |
| 2026-04-30 17:50 | 63.42073 | 25.38299 | 31102 ft | 515 kts | 184° |
| 2026-04-30 17:51 | 63.31667 | 25.37807 | 31170 ft | 484 kts | 184° |
| 2026-04-30 17:52 | 63.21610 | 25.37268 | 31174 ft | 481 kts | 184° |
| 2026-04-30 17:54 | 62.91475 | 25.35760 | 31169 ft | 481 kts | 183° |
| 2026-04-30 17:56 | 62.64777 | 25.34402 | 31142 ft | 481 kts | 183° |
| 2026-04-30 17:58 | 62.44689 | 25.33436 | 31127 ft | 481 kts | 183° |
| 2026-04-30 18:00 | 62.18004 | 25.32157 | 30613 ft | 469 kts | 183° |
| 2026-04-30 18:00 | 62.08265 | 25.31694 | 29666 ft | 458 kts | 183° |
| 2026-04-30 18:01 | 62.01945 | 25.31397 | 28802 ft | 450 kts | 183° |
| 2026-04-30 18:02 | 61.92665 | 25.30954 | 27534 ft | 439 kts | 182° |
| 2026-04-30 18:02 | 61.83591 | 25.30531 | 26246 ft | 430 kts | 182° |
| 2026-04-30 18:03 | 61.74679 | 25.30108 | 24898 ft | 425 kts | 182° |
| 2026-04-30 18:04 | 61.65847 | 25.29707 | 23507 ft | 421 kts | 182° |
| 2026-04-30 18:05 | 61.54364 | 25.29159 | 21706 ft | 405 kts | 182° |
| 2026-04-30 18:06 | 61.44132 | 25.28685 | 20125 ft | 400 kts | 182° |
| 2026-04-30 18:07 | 61.33136 | 25.28191 | 18493 ft | 395 kts | 182° |
| 2026-04-30 18:08 | 61.25103 | 25.27820 | 17114 ft | 376 kts | 182° |
| 2026-04-30 18:09 | 61.14837 | 25.27342 | 15386 ft | 368 kts | 181° |
| 2026-04-30 18:10 | 61.04882 | 25.26902 | 13702 ft | 350 kts | 181° |
| 2026-04-30 18:11 | 60.95327 | 25.26477 | 11806 ft | 335 kts | 181° |
| 2026-04-30 18:11 | 60.88435 | 25.26789 | 10671 ft | 326 kts | 177° |
| 2026-04-30 18:12 | 60.81748 | 25.27338 | 9333 ft | 315 kts | 178° |
| 2026-04-30 18:13 | 60.77427 | 25.27628 | 8383 ft | 307 kts | 178° |
| 2026-04-30 18:13 | 60.71147 | 25.27659 | 7351 ft | 296 kts | 193° |
| 2026-04-30 18:14 | 60.67549 | 25.24190 | 6226 ft | 283 kts | 224° |
| 2026-04-30 18:15 | 60.63722 | 25.15841 | 5567 ft | 251 kts | 231° |
| 2026-04-30 18:15 | 60.60147 | 25.08379 | 4913 ft | 266 kts | 212° |
| 2026-04-30 18:16 | 60.56527 | 25.08009 | 4533 ft | 259 kts | 156° |
| 2026-04-30 18:16 | 60.53515 | 25.11173 | 4168 ft | 231 kts | 151° |
| 2026-04-30 18:17 | 60.52155 | 25.12839 | 4049 ft | 227 kts | 136° |
| 2026-04-30 18:17 | 60.51332 | 25.15452 | 4051 ft | 217 kts | 98° |
| 2026-04-30 18:17 | 60.52047 | 25.21184 | 4455 ft | 213 kts | 66° |
| 2026-04-30 18:18 | 60.52134 | 25.24191 | 4152 ft | 220 kts | 103° |
| 2026-04-30 18:18 | 60.51324 | 25.26744 | 4113 ft | 224 kts | 140° |
| 2026-04-30 18:18 | 60.49912 | 25.27999 | 3953 ft | 220 kts | 177° |
| 2026-04-30 18:18 | 60.48417 | 25.27914 | 3782 ft | 212 kts | 188° |
| 2026-04-30 18:19 | 60.46978 | 25.27407 | 3533 ft | 208 kts | 203° |
| 2026-04-30 18:19 | 60.45746 | 25.25993 | 3275 ft | 201 kts | 226° |
| 2026-04-30 18:19 | 60.44795 | 25.23959 | 3071 ft | 197 kts | 232° |
| 2026-04-30 18:19 | 60.43901 | 25.21963 | 3009 ft | 186 kts | 232° |
| 2026-04-30 18:20 | 60.43084 | 25.20144 | 2984 ft | 162 kts | 233° |
| 2026-04-30 18:20 | 60.42352 | 25.18512 | 2858 ft | 152 kts | 233° |
| 2026-04-30 18:20 | 60.41652 | 25.16951 | 2682 ft | 147 kts | 233° |
| 2026-04-30 18:20 | 60.40969 | 25.15428 | 2495 ft | 146 kts | 233° |
| 2026-04-30 18:21 | 60.40290 | 25.13915 | 2301 ft | 145 kts | 233° |
| 2026-04-30 18:21 | 60.39614 | 25.12412 | 2106 ft | 144 kts | 232° |
| 2026-04-30 18:21 | 60.38943 | 25.10921 | 1907 ft | 143 kts | 232° |
| 2026-04-30 18:21 | 60.38273 | 25.09434 | 1715 ft | 142 kts | 232° |
| 2026-04-30 18:22 | 60.37614 | 25.07973 | 1520 ft | 141 kts | 231° |
| 2026-04-30 18:22 | 60.36299 | 25.05058 | 1127 ft | 139 kts | 230° |
| 2026-04-30 18:22 | 60.35651 | 25.03625 | 950 ft | 137 kts | 229° |
| 2026-04-30 18:23 | 60.35013 | 25.02212 | 766 ft | 135 kts | 228° |
| 2026-04-30 18:23 | 60.34384 | 25.00821 | 586 ft | 134 kts | 227° |
| 2026-04-30 18:23 | 60.33761 | 24.99429 | 381 ft | 134 kts | 226° |
| 2026-04-30 18:23 | 60.33133 | 24.98057 | 209 ft | 132 kts | 226° |
| 2026-04-30 18:24 | 60.32185 | 24.95972 | 165 ft | 59 kts | 226° |
| 2026-04-30 18:24 | 60.31935 | 24.95643 | 163 ft | 28 kts | 198° |
| 2026-04-30 18:24 | 60.31832 | 24.95605 | 163 ft | 13 kts | 153° |
| 2026-04-30 18:25 | 60.31826 | 24.95612 | 163 ft | 0 kts | 147° |
| 2026-04-30 18:26 | 60.31819 | 24.95624 | 163 ft | 1 kts | 139° |
| 2026-04-30 18:26 | 60.31817 | 24.95629 | 163 ft | 0 kts | 137° |
| 2026-04-30 18:27 | 60.31816 | 24.95630 | 163 ft | 1 kts | 136° |
| 2026-04-30 18:27 | 60.31827 | 24.95745 | 163 ft | 14 kts | 53° |
| 2026-04-30 18:28 | 60.31950 | 24.96017 | 164 ft | 15 kts | 48° |
| 2026-04-30 18:28 | 60.32033 | 24.96205 | 164 ft | 18 kts | 48° |
| 2026-04-30 18:28 | 60.32193 | 24.96552 | 164 ft | 10 kts | 47° |
| 2026-04-30 18:29 | 60.32211 | 24.96591 | 164 ft | 0 kts | 47° |
| 2026-04-30 18:29 | 60.32293 | 24.96843 | 164 ft | 8 kts | 122° |
| 2026-04-30 18:30 | 60.32189 | 24.96970 | 163 ft | 18 kts | 153° |
| 2026-04-30 18:30 | 60.31863 | 24.97302 | 162 ft | 25 kts | 153° |
| 2026-04-30 18:31 | 60.31718 | 24.97455 | 161 ft | 21 kts | 154° |
| 2026-04-30 18:31 | 60.31649 | 24.97378 | 161 ft | 8 kts | 323° |
| 2026-04-30 18:32 | 60.31676 | 24.97235 | 162 ft | 5 kts | 243° |
| 2026-04-30 18:32 | 60.31675 | 24.97229 | 162 ft | 1 kts | 243° |
| 2026-04-30 18:32 | 60.31672 | 24.97218 | 162 ft | 0 kts | 244° |
| 2026-04-30 18:33 | 60.31668 | 24.97203 | 162 ft | 0 kts | 245° |